Terminal Aerodrome Forecast
Issued by NWS

Home | Current Version | Previous Version | Text Only | Print | Product List | Glossary On
Versions: 1 2 3 4 5 6 7 8 9 10 11 12 13 14
284
FTUS42 KILM 240810 AAB
TAFCRE
TAF AMD
KCRE 240810Z 2408/2506 04008KT P6SM VCSH OVC008
      TEMPO 2408/2411 3SM SHRA SCT005 BKN012
     FM241500 13012G20KT 4SM SHRA OVC020
     FM250000 12010KT 2SM +SHRA OVC006
     FM250300 16009KT 2SM +SHRA BKN003=

USA.gov is the U.S. government's official web portal to all federal, state and local government web resources and services.